Aviation Digital Data Service (ADDS)

Output produced by METARs form (2341 UTC 22 November 2014)
found at http://aviationweather.gov/adds/metars/
 
KRME 222320Z 2300/2324 12010KT P6SM -SHRA OVC025 WS020/24045KT 
     TEMPO 2300/2302 -FZRA 
     FM230300 VRB05KT P6SM -SHRA OVC025 
     FM231000 VRB05KT P6SM OVC030 
     FM231500 14005KT P6SM OVC030 
     TEMPO 2321/2324 OVC050